Time;durP1;ratioP1;P1;durP2;ratioP2;P2;SDS_P1;SDS_P2;PMS_P1;PMS_P2;Temp;Humidity;BMP_temperature;BMP_pressure;BME280_temperature;BME280_humidity;BME280_pressure;Samples;Min_cycle;Max_cycle;Signal;HPM_P1;HPM_P2
2022/03/06 00:01:43;;;;;;;11.57;10.38;;;1.80;76.90;;;;;;5033769;28;20222;-62
2022/03/06 00:04:10;;;;;;;12.45;10.98;;;1.80;77.80;;;;;;5033720;28;20199;-62
2022/03/06 00:06:37;;;;;;;12.13;10.80;;;1.70;78.20;;;;;;5033585;28;20206;-62
2022/03/06 00:09:06;;;;;;;14.27;11.27;;;1.70;78.90;;;;;;5033483;28;20226;-62
2022/03/06 00:11:33;;;;;;;14.27;11.02;;;1.70;79.50;;;;;;5033502;28;20222;-62
2022/03/06 00:14:00;;;;;;;13.48;11.40;;;1.70;80.20;;;;;;5033450;28;20229;-61
2022/03/06 00:16:27;;;;;;;13.30;10.57;;;1.70;80.90;;;;;;5033806;28;20213;-61
2022/03/06 00:18:54;;;;;;;14.65;10.65;;;1.70;81.20;;;;;;5033438;28;20202;-61
2022/03/06 00:21:21;;;;;;;11.25;9.93;;;1.80;81.70;;;;;;5033476;28;20217;-61
2022/03/06 00:23:48;;;;;;;15.02;11.20;;;1.80;82.20;;;;;;5033794;28;20570;-62
2022/03/06 00:26:17;;;;;;;11.93;10.10;;;1.80;83.00;;;;;;5037669;28;20202;-61
2022/03/06 00:28:44;;;;;;;12.38;10.18;;;1.90;83.80;;;;;;5037507;28;20209;-62
2022/03/06 00:31:12;;;;;;;14.20;11.02;;;1.80;84.30;;;;;;5037583;28;20202;-61
2022/03/06 00:33:39;;;;;;;13.18;10.07;;;1.90;85.10;;;;;;5041754;28;20206;-61
2022/03/06 00:36:07;;;;;;;12.65;10.60;;;1.90;85.60;;;;;;5037713;28;20206;-61
2022/03/06 00:38:34;;;;;;;11.23;10.02;;;1.90;86.20;;;;;;5042389;28;20210;-62
2022/03/06 00:41:01;;;;;;;13.57;10.93;;;1.90;86.90;;;;;;5037129;28;20575;-62
2022/03/06 00:43:30;;;;;;;13.95;10.65;;;1.90;87.30;;;;;;5037928;28;20654;-62
2022/03/06 00:45:57;;;;;;;13.43;10.55;;;1.90;87.50;;;;;;5037170;28;20202;-61
2022/03/06 00:48:24;;;;;;;15.25;10.45;;;1.90;87.80;;;;;;5037212;28;20206;-61
2022/03/06 00:50:51;;;;;;;12.27;10.98;;;1.90;88.10;;;;;;5037294;28;20231;-61
2022/03/06 00:53:19;;;;;;;14.40;11.00;;;1.90;88.50;;;;;;5037082;28;20735;-62
2022/03/06 00:55:46;;;;;;;13.18;9.77;;;1.90;88.90;;;;;;5038509;28;20229;-61
2022/03/06 00:58:13;;;;;;;16.50;9.95;;;1.90;89.00;;;;;;5039147;28;20202;-62
2022/03/06 01:00:43;;;;;;;13.63;10.38;;;1.90;89.20;;;;;;5037441;28;20551;-62
2022/03/06 01:03:12;;;;;;;13.20;11.05;;;2.00;89.70;;;;;;5036981;28;20229;-61
2022/03/06 01:05:39;;;;;;;12.27;10.38;;;2.00;90.00;;;;;;5036862;28;20218;-62
2022/03/06 01:08:06;;;;;;;12.60;10.15;;;2.00;90.10;;;;;;5036834;28;20207;-62
2022/03/06 01:10:34;;;;;;;10.95;9.60;;;2.00;90.20;;;;;;5036601;28;20202;-62
2022/03/06 01:13:02;;;;;;;12.93;9.00;;;2.00;90.30;;;;;;5036642;28;20233;-62
2022/03/06 01:15:30;;;;;;;11.80;9.52;;;2.00;90.40;;;;;;5037669;28;20226;-62
2022/03/06 01:17:58;;;;;;;12.80;10.75;;;2.10;90.50;;;;;;5039780;28;20682;-61
2022/03/06 01:20:26;;;;;;;13.73;9.75;;;2.10;90.60;;;;;;5038734;28;20210;-62
2022/03/06 01:22:54;;;;;;;12.68;10.27;;;2.10;90.70;;;;;;5037084;28;20234;-62
2022/03/06 01:25:22;;;;;;;13.55;9.85;;;2.10;90.80;;;;;;5036587;28;20205;-62
2022/03/06 01:27:49;;;;;;;12.13;10.18;;;2.10;90.90;;;;;;5036361;28;20222;-61
2022/03/06 01:30:16;;;;;;;11.63;9.10;;;2.10;90.90;;;;;;5036663;28;20202;-61
2022/03/06 01:32:44;;;;;;;13.40;9.77;;;2.10;91.00;;;;;;5036186;28;20284;-61
2022/03/06 01:35:12;;;;;;;12.52;9.57;;;2.10;91.20;;;;;;5036144;28;20226;-62
2022/03/06 01:37:40;;;;;;;12.77;10.70;;;2.10;91.40;;;;;;5035219;28;20203;-61
2022/03/06 01:40:09;;;;;;;12.57;9.77;;;2.10;91.50;;;;;;5036071;28;20206;-62
2022/03/06 01:42:40;;;;;;;12.75;10.10;;;2.00;91.50;;;;;;5036256;28;20226;-62
2022/03/06 01:45:09;;;;;;;13.30;9.27;;;2.00;91.60;;;;;;5036203;28;20186;-62
2022/03/06 01:47:39;;;;;;;12.32;9.80;;;2.00;91.70;;;;;;5036196;28;20265;-62
2022/03/06 01:50:09;;;;;;;12.60;9.50;;;2.00;91.80;;;;;;5035728;28;20728;-61
2022/03/06 01:52:38;;;;;;;10.18;8.60;;;2.10;91.90;;;;;;5036119;28;20225;-61
2022/03/06 01:55:06;;;;;;;11.23;9.23;;;2.10;91.90;;;;;;5040912;28;20702;-63
2022/03/06 01:57:34;;;;;;;13.10;9.95;;;2.00;91.90;;;;;;5045792;28;20214;-62
2022/03/06 02:00:02;;;;;;;10.20;9.10;;;2.10;92.00;;;;;;5044640;28;20206;-62
2022/03/06 02:02:29;;;;;;;14.20;9.93;;;2.00;92.10;;;;;;5049162;28;20230;-62
2022/03/06 02:04:56;;;;;;;10.32;8.82;;;2.10;92.20;;;;;;5049372;28;20655;-63
2022/03/06 02:07:23;;;;;;;14.68;9.40;;;2.10;92.30;;;;;;5047203;28;20206;-62
2022/03/06 02:09:52;;;;;;;10.45;9.02;;;2.00;92.30;;;;;;5046330;28;20213;-62
2022/03/06 02:12:25;;;;;;;12.23;9.43;;;2.00;92.40;;;;;;5048224;28;20226;-63
2022/03/06 02:14:54;;;;;;;12.27;9.77;;;2.00;92.50;;;;;;5045018;28;20206;-62
2022/03/06 02:17:21;;;;;;;10.38;9.30;;;2.00;92.60;;;;;;5044228;28;20210;-61
2022/03/06 02:19:53;;;;;;;12.15;9.27;;;2.00;92.90;;;;;;5042007;28;20214;-62
2022/03/06 02:22:23;;;;;;;11.55;10.25;;;2.00;92.70;;;;;;5036148;28;20226;-62
2022/03/06 02:24:50;;;;;;;11.23;9.00;;;2.00;92.80;;;;;;5038470;28;20205;-62
2022/03/06 02:27:18;;;;;;;10.40;9.43;;;2.00;92.80;;;;;;5038767;28;20221;-61
2022/03/06 02:29:45;;;;;;;11.70;9.55;;;2.00;92.90;;;;;;5039922;28;20217;-61
2022/03/06 02:32:14;;;;;;;10.80;9.25;;;2.00;92.90;;;;;;5035621;28;20223;-61
2022/03/06 02:34:44;;;;;;;10.05;9.05;;;2.00;93.00;;;;;;5036113;28;20698;-62
2022/03/06 02:37:11;;;;;;;12.38;8.98;;;2.00;93.00;;;;;;5036549;28;20671;-61
2022/03/06 02:39:40;;;;;;;11.13;9.02;;;2.00;93.00;;;;;;5036218;28;20210;-62
2022/03/06 02:42:07;;;;;;;10.75;9.65;;;2.00;93.10;;;;;;5035403;28;20249;-61
2022/03/06 02:44:34;;;;;;;9.23;8.00;;;2.00;93.10;;;;;;5034979;28;20206;-62
2022/03/06 02:47:01;;;;;;;9.77;8.88;;;2.00;93.20;;;;;;5034795;28;20202;-61
2022/03/06 02:49:28;;;;;;;13.30;9.57;;;2.00;93.20;;;;;;5033706;28;20214;-62
2022/03/06 02:51:55;;;;;;;10.45;8.25;;;2.00;93.20;;;;;;5034513;28;20710;-62
2022/03/06 02:54:22;;;;;;;10.43;8.75;;;1.90;93.10;;;;;;5034811;28;20307;-62
2022/03/06 02:56:51;;;;;;;10.77;8.48;;;1.90;93.20;;;;;;5034814;28;20210;-62
2022/03/06 02:59:18;;;;;;;11.45;8.45;;;1.90;93.20;;;;;;5034644;28;20205;-61
2022/03/06 03:01:45;;;;;;;8.70;7.80;;;1.90;93.20;;;;;;5034684;28;20310;-62
2022/03/06 03:04:13;;;;;;;12.07;9.10;;;1.90;93.30;;;;;;5034421;28;20217;-62
2022/03/06 03:06:40;;;;;;;9.07;8.15;;;1.90;93.30;;;;;;5034696;28;20203;-62
2022/03/06 03:09:08;;;;;;;8.25;7.45;;;1.90;93.20;;;;;;5034810;28;20209;-61
2022/03/06 03:11:36;;;;;;;11.73;7.90;;;1.90;93.20;;;;;;5034313;28;20710;-62
2022/03/06 03:14:04;;;;;;;9.00;8.20;;;1.90;93.20;;;;;;5034293;28;20201;-62
2022/03/06 03:16:32;;;;;;;8.73;7.85;;;1.90;93.20;;;;;;5034385;28;20566;-61
2022/03/06 03:18:59;;;;;;;8.77;7.60;;;1.90;93.20;;;;;;5034183;28;20225;-63
2022/03/06 03:21:26;;;;;;;9.10;7.93;;;1.90;93.20;;;;;;5035270;28;20242;-62
2022/03/06 03:23:53;;;;;;;8.43;7.47;;;1.90;93.20;;;;;;5035567;28;20187;-61
2022/03/06 03:26:20;;;;;;;10.48;7.47;;;1.90;93.20;;;;;;5035571;28;20281;-62
2022/03/06 03:28:47;;;;;;;9.15;7.53;;;1.90;93.20;;;;;;5035809;28;20207;-61
2022/03/06 03:31:15;;;;;;;7.47;6.35;;;1.90;93.20;;;;;;5041433;28;20203;-63
2022/03/06 03:33:42;;;;;;;7.35;6.65;;;1.90;93.10;;;;;;5045541;28;20209;-63
2022/03/06 03:36:09;;;;;;;7.90;7.15;;;1.90;93.00;;;;;;5045039;28;20226;-62
2022/03/06 03:38:38;;;;;;;7.15;6.55;;;1.80;93.00;;;;;;5044844;28;20199;-61
2022/03/06 03:41:05;;;;;;;10.02;6.95;;;1.80;92.90;;;;;;5047693;28;20221;-63
2022/03/06 03:43:32;;;;;;;7.30;6.53;;;1.80;93.00;;;;;;5047892;28;20298;-62
2022/03/06 03:45:59;;;;;;;7.68;6.22;;;1.70;92.90;;;;;;5048373;28;20202;-62
2022/03/06 03:48:29;;;;;;;7.75;6.78;;;1.80;92.90;;;;;;5047988;28;20220;-62
2022/03/06 03:50:56;;;;;;;6.85;6.05;;;1.70;92.90;;;;;;5048252;28;20202;-61
2022/03/06 03:53:24;;;;;;;7.10;6.18;;;1.70;92.90;;;;;;5047047;28;20222;-61
2022/03/06 03:55:52;;;;;;;7.40;6.72;;;1.70;92.80;;;;;;5044304;28;20222;-62
2022/03/06 03:58:20;;;;;;;8.60;6.82;;;1.70;92.90;;;;;;5041014;28;20206;-62
2022/03/06 04:00:48;;;;;;;6.40;5.70;;;1.70;92.90;;;;;;5039987;28;20202;-62
2022/03/06 04:03:16;;;;;;;8.02;6.43;;;1.70;92.70;;;;;;5040635;28;20326;-62
2022/03/06 04:05:44;;;;;;;7.63;6.88;;;1.70;92.70;;;;;;5041160;28;20205;-61
2022/03/06 04:09:24;;;;;;;6.35;5.47;;;1.70;92.60;;;;;;5118486;27;20536;-61
2022/03/06 04:11:51;;;;;;;6.32;5.72;;;1.70;92.60;;;;;;5117527;28;20568;-61
2022/03/06 04:14:18;;;;;;;11.10;6.38;;;1.70;92.40;;;;;;5118421;28;20203;-61
2022/03/06 04:16:45;;;;;;;8.00;6.10;;;1.70;92.30;;;;;;5121822;28;20204;-61
2022/03/06 04:19:12;;;;;;;6.20;5.60;;;1.70;92.30;;;;;;5127996;28;20211;-62
2022/03/06 04:21:40;;;;;;;5.93;5.43;;;1.70;92.30;;;;;;5142747;22;20238;-61
2022/03/06 04:24:07;;;;;;;7.70;5.95;;;1.70;92.30;;;;;;5030496;28;20205;-60
2022/03/06 04:26:36;;;;;;;6.72;5.78;;;1.70;92.20;;;;;;5030171;28;20199;-60
2022/03/06 04:29:04;;;;;;;6.55;5.50;;;1.70;92.20;;;;;;5030352;28;20218;-60
2022/03/06 04:31:31;;;;;;;7.55;6.28;;;1.70;92.10;;;;;;5030041;28;20210;-60
2022/03/06 04:33:58;;;;;;;6.82;6.13;;;1.70;92.00;;;;;;5030007;28;20203;-61
2022/03/06 04:36:26;;;;;;;10.73;6.38;;;1.60;91.90;;;;;;5030177;28;20214;-61
2022/03/06 04:38:53;;;;;;;7.15;5.95;;;1.70;92.00;;;;;;5029789;28;20670;-61
2022/03/06 04:41:20;;;;;;;7.53;5.78;;;1.60;91.90;;;;;;5029752;28;20697;-61
2022/03/06 04:43:50;;;;;;;6.20;5.60;;;1.60;91.90;;;;;;5029834;28;20735;-61
2022/03/06 04:46:17;;;;;;;6.32;5.63;;;1.60;91.80;;;;;;5030187;28;20281;-61
2022/03/06 04:48:44;;;;;;;7.18;6.40;;;1.60;91.90;;;;;;5029909;28;20223;-61
2022/03/06 04:51:12;;;;;;;6.18;5.05;;;1.60;91.90;;;;;;5029565;28;20293;-61
2022/03/06 04:53:39;;;;;;;6.47;5.45;;;1.60;92.00;;;;;;5029829;28;20226;-61
2022/03/06 04:56:07;;;;;;;10.45;6.30;;;1.60;92.00;;;;;;5029812;28;20206;-61
2022/03/06 04:58:34;;;;;;;9.77;5.75;;;1.60;92.00;;;;;;5029885;28;20203;-61
2022/03/06 05:01:04;;;;;;;5.85;5.35;;;1.60;92.10;;;;;;5029842;28;20206;-61
2022/03/06 05:03:31;;;;;;;8.43;5.93;;;1.60;92.30;;;;;;5029474;28;20264;-62
2022/03/06 05:05:58;;;;;;;6.03;5.32;;;1.60;92.10;;;;;;5029540;28;20205;-61
2022/03/06 05:08:28;;;;;;;6.38;5.35;;;1.60;92.20;;;;;;5029596;28;20219;-61
2022/03/06 05:10:55;;;;;;;7.30;5.70;;;1.60;92.20;;;;;;5029704;28;20233;-62
2022/03/06 05:13:22;;;;;;;6.47;5.07;;;1.50;92.20;;;;;;5029655;28;20230;-60
2022/03/06 05:15:49;;;;;;;6.90;5.35;;;1.50;92.30;;;;;;5029587;28;20206;-61
2022/03/06 05:18:18;;;;;;;8.40;5.97;;;1.50;92.30;;;;;;5029343;28;20202;-61
2022/03/06 05:20:45;;;;;;;7.18;5.85;;;1.50;92.30;;;;;;5016336;28;20202;-60
2022/03/06 05:23:12;;;;;;;5.45;4.57;;;1.50;92.40;;;;;;5015920;28;20234;-61
2022/03/06 05:25:39;;;;;;;7.75;6.50;;;1.50;92.40;;;;;;5015887;28;20214;-60
2022/03/06 05:28:06;;;;;;;6.72;5.88;;;1.50;92.40;;;;;;5016128;28;20227;-61
2022/03/06 05:30:34;;;;;;;5.75;5.00;;;1.40;92.50;;;;;;5015802;28;20206;-62
2022/03/06 05:33:01;;;;;;;7.10;5.43;;;1.40;92.50;;;;;;5016012;28;20342;-61
2022/03/06 05:35:29;;;;;;;6.25;5.40;;;1.40;92.60;;;;;;5015628;28;20199;-61
2022/03/06 05:37:57;;;;;;;6.25;5.65;;;1.40;92.60;;;;;;5015961;28;20226;-61
2022/03/06 05:40:24;;;;;;;5.68;5.10;;;1.40;92.60;;;;;;5016164;28;20210;-61
2022/03/06 05:42:51;;;;;;;5.90;5.22;;;1.40;92.50;;;;;;5015882;28;20297;-61
2022/03/06 05:45:18;;;;;;;7.45;4.50;;;1.40;92.60;;;;;;5015682;28;20202;-61
2022/03/06 05:47:45;;;;;;;7.22;5.85;;;1.40;92.60;;;;;;5015378;28;20230;-61
2022/03/06 05:50:13;;;;;;;6.70;5.88;;;1.40;92.60;;;;;;5015587;28;20211;-61
2022/03/06 05:52:41;;;;;;;5.10;4.60;;;1.30;92.50;;;;;;5015428;28;20223;-61
2022/03/06 05:55:10;;;;;;;6.03;5.20;;;1.30;92.50;;;;;;5015473;28;20210;-61
2022/03/06 05:57:37;;;;;;;7.50;5.18;;;1.30;92.50;;;;;;5015126;28;20710;-62
2022/03/06 06:00:08;;;;;;;5.20;4.70;;;1.20;92.50;;;;;;5015116;28;20689;-62
2022/03/06 06:02:35;;;;;;;6.18;5.57;;;1.20;92.50;;;;;;5015065;28;20277;-61
2022/03/06 06:05:03;;;;;;;6.13;5.18;;;1.20;92.50;;;;;;5015565;28;20227;-60
2022/03/06 06:07:30;;;;;;;6.25;5.00;;;1.20;92.50;;;;;;5015382;28;20210;-61
2022/03/06 06:09:59;;;;;;;7.35;5.20;;;1.20;92.50;;;;;;5015342;28;20211;-62
2022/03/06 06:12:26;;;;;;;5.47;4.97;;;1.20;92.50;;;;;;5015157;28;20586;-61
2022/03/06 06:14:53;;;;;;;5.85;5.25;;;1.20;92.40;;;;;;5015176;28;20207;-61
2022/03/06 06:17:20;;;;;;;6.57;4.97;;;1.20;92.40;;;;;;5014794;28;20206;-61
2022/03/06 06:19:48;;;;;;;6.28;4.95;;;1.20;92.30;;;;;;5014811;28;20195;-61
2022/03/06 06:22:15;;;;;;;5.97;4.63;;;1.30;92.20;;;;;;5014744;28;20226;-61
2022/03/06 06:24:42;;;;;;;8.35;4.90;;;1.30;92.10;;;;;;5014686;28;20187;-61
2022/03/06 06:27:11;;;;;;;6.28;5.13;;;1.30;92.10;;;;;;5014916;28;20581;-61
2022/03/06 06:29:38;;;;;;;5.97;5.40;;;1.30;92.10;;;;;;5014434;28;20219;-62
2022/03/06 06:32:06;;;;;;;7.55;4.88;;;1.30;92.00;;;;;;5013977;28;20231;-61
2022/03/06 06:34:33;;;;;;;7.28;4.70;;;1.30;92.00;;;;;;5014602;28;20203;-61
2022/03/06 06:37:00;;;;;;;10.50;6.00;;;1.30;91.90;;;;;;5014502;28;20241;-61
2022/03/06 06:39:27;;;;;;;7.60;5.60;;;1.40;91.90;;;;;;5014761;28;20206;-61
2022/03/06 06:41:54;;;;;;;7.07;5.63;;;1.40;91.70;;;;;;5014599;28;20226;-61
2022/03/06 06:44:22;;;;;;;6.22;5.20;;;1.50;91.50;;;;;;5014680;28;20206;-60
2022/03/06 06:46:49;;;;;;;7.38;4.93;;;1.50;91.40;;;;;;5014247;28;20265;-61
2022/03/06 06:49:16;;;;;;;6.55;5.25;;;1.50;91.30;;;;;;5014003;28;20219;-63
2022/03/06 06:51:44;;;;;;;7.55;5.40;;;1.60;91.20;;;;;;5014447;28;20223;-62
2022/03/06 06:54:13;;;;;;;7.95;5.47;;;1.60;91.10;;;;;;5014374;28;20211;-62
2022/03/06 06:56:40;;;;;;;7.32;4.97;;;1.60;91.00;;;;;;5014590;28;20202;-61
2022/03/06 06:59:07;;;;;;;5.50;4.63;;;1.70;90.80;;;;;;5014522;28;20199;-61
2022/03/06 07:01:35;;;;;;;6.93;5.55;;;1.70;90.70;;;;;;5014275;28;20202;-61
2022/03/06 07:04:03;;;;;;;6.90;5.13;;;1.80;90.60;;;;;;5014836;28;20571;-60
2022/03/06 07:06:30;;;;;;;5.78;4.70;;;1.80;90.50;;;;;;5014056;28;20215;-61
2022/03/06 07:08:57;;;;;;;7.63;5.30;;;1.80;90.40;;;;;;5013848;28;20226;-61
2022/03/06 07:11:24;;;;;;;8.27;5.32;;;1.90;90.50;;;;;;5014028;28;20203;-62
2022/03/06 07:13:51;;;;;;;8.25;5.50;;;2.00;90.10;;;;;;5014053;28;20230;-62
2022/03/06 07:16:18;;;;;;;7.28;5.88;;;2.00;89.90;;;;;;5014059;28;20210;-62
2022/03/06 07:18:46;;;;;;;7.78;5.30;;;2.00;89.50;;;;;;5013793;28;20195;-61
2022/03/06 07:21:13;;;;;;;9.98;4.75;;;2.10;89.30;;;;;;5014024;28;20210;-62
2022/03/06 07:23:40;;;;;;;6.07;5.47;;;2.10;88.70;;;;;;5013528;28;20246;-61
2022/03/06 07:26:08;;;;;;;5.93;5.05;;;2.10;88.40;;;;;;5013951;28;20210;-61
2022/03/06 07:28:35;;;;;;;7.13;6.10;;;2.00;87.80;;;;;;5013773;28;20223;-62
2022/03/06 07:31:02;;;;;;;7.47;5.65;;;2.00;87.80;;;;;;5013653;28;20214;-61
2022/03/06 07:33:29;;;;;;;7.75;5.43;;;2.00;87.70;;;;;;5013748;28;20260;-61
2022/03/06 07:35:57;;;;;;;6.05;5.45;;;2.10;87.60;;;;;;5014087;28;20239;-61
2022/03/06 07:38:24;;;;;;;5.82;4.80;;;2.20;87.20;;;;;;5013554;28;20226;-61
2022/03/06 07:40:51;;;;;;;6.00;5.40;;;2.20;86.70;;;;;;5013748;28;20203;-61
2022/03/06 07:43:18;;;;;;;7.13;5.40;;;2.30;86.20;;;;;;5013484;28;20227;-61
2022/03/06 07:45:45;;;;;;;7.45;5.32;;;2.30;85.80;;;;;;5013964;28;20203;-61
2022/03/06 07:48:12;;;;;;;5.97;5.35;;;2.30;85.60;;;;;;5013353;28;20575;-61
2022/03/06 07:50:39;;;;;;;5.78;5.20;;;2.30;85.10;;;;;;5013997;28;20202;-62
2022/03/06 07:53:08;;;;;;;8.32;5.55;;;2.30;85.20;;;;;;5013414;28;20223;-62
2022/03/06 07:55:35;;;;;;;6.00;4.80;;;2.40;84.80;;;;;;5013430;28;20199;-61
2022/03/06 07:58:02;;;;;;;6.05;5.45;;;2.30;84.40;;;;;;5013392;28;20206;-61
2022/03/06 08:00:30;;;;;;;5.25;4.60;;;2.40;84.40;;;;;;5013069;28;20687;-61
2022/03/06 08:02:57;;;;;;;6.40;5.30;;;2.40;84.20;;;;;;5013285;28;20266;-61
2022/03/06 08:05:24;;;;;;;9.70;5.10;;;2.40;84.00;;;;;;5013136;28;20798;-61
2022/03/06 08:07:51;;;;;;;5.35;4.85;;;2.40;83.70;;;;;;5012984;28;20699;-60
2022/03/06 08:10:20;;;;;;;6.20;5.60;;;2.50;83.60;;;;;;5013029;28;20219;-61
2022/03/06 08:12:49;;;;;;;6.82;5.03;;;2.60;83.10;;;;;;5012922;28;20825;-61
2022/03/06 08:15:16;;;;;;;5.20;4.70;;;2.60;82.70;;;;;;5013178;28;20655;-62
2022/03/06 08:17:44;;;;;;;5.53;5.00;;;2.70;82.40;;;;;;5013183;28;20214;-62
2022/03/06 08:20:11;;;;;;;8.02;5.60;;;2.60;82.00;;;;;;5013382;28;20199;-61
2022/03/06 08:22:39;;;;;;;4.82;4.30;;;2.60;81.60;;;;;;5013006;28;20241;-62
2022/03/06 08:25:07;;;;;;;5.47;4.88;;;2.70;81.80;;;;;;5013331;28;20214;-62
2022/03/06 08:27:35;;;;;;;6.63;4.85;;;2.70;81.60;;;;;;5013474;28;20203;-63
2022/03/06 08:30:05;;;;;;;5.65;5.15;;;2.80;81.50;;;;;;5013099;28;20234;-62
2022/03/06 08:32:33;;;;;;;6.88;5.35;;;2.90;81.10;;;;;;5013164;28;20266;-61
2022/03/06 08:35:00;;;;;;;7.75;4.28;;;2.90;80.00;;;;;;5013247;28;20198;-61
2022/03/06 08:37:27;;;;;;;5.32;4.55;;;2.90;79.70;;;;;;5013167;28;20207;-61
2022/03/06 08:39:54;;;;;;;6.63;4.90;;;3.00;79.80;;;;;;5012804;28;20199;-62
2022/03/06 08:42:21;;;;;;;5.55;4.57;;;3.00;79.90;;;;;;5012906;28;20222;-62
2022/03/06 08:44:49;;;;;;;6.75;4.35;;;3.10;79.30;;;;;;5013173;28;20207;-61
2022/03/06 08:47:17;;;;;;;5.15;4.10;;;3.10;78.80;;;;;;5013309;28;20620;-61
2022/03/06 08:49:44;;;;;;;6.78;4.13;;;3.30;78.60;;;;;;5012969;28;20230;-62
2022/03/06 08:52:11;;;;;;;6.75;4.70;;;3.40;77.90;;;;;;5012958;28;20227;-62
2022/03/06 08:54:38;;;;;;;6.10;4.13;;;3.40;77.40;;;;;;5014197;28;20238;-62
2022/03/06 08:57:06;;;;;;;7.57;4.25;;;3.50;77.00;;;;;;5016678;28;20211;-61
2022/03/06 08:59:33;;;;;;;4.93;3.80;;;3.60;76.60;;;;;;5016307;28;20203;-62
2022/03/06 09:02:01;;;;;;;4.55;3.55;;;3.60;76.10;;;;;;5016595;28;20223;-62
2022/03/06 09:04:31;;;;;;;3.97;3.50;;;3.60;74.90;;;;;;5016379;28;20274;-61
2022/03/06 09:06:58;;;;;;;5.45;4.18;;;3.60;74.60;;;;;;5016581;28;20207;-62
2022/03/06 09:09:25;;;;;;;4.38;3.33;;;3.70;74.00;;;;;;5016079;28;20722;-62
2022/03/06 09:11:52;;;;;;;4.10;3.80;;;3.70;73.20;;;;;;5016514;28;20223;-63
2022/03/06 09:14:20;;;;;;;5.13;3.47;;;3.80;72.40;;;;;;5016095;28;20229;-63
2022/03/06 09:16:47;;;;;;;6.95;4.30;;;3.80;71.70;;;;;;5015967;28;20679;-61
2022/03/06 09:19:15;;;;;;;4.32;3.30;;;3.90;71.00;;;;;;5016582;28;20317;-63
2022/03/06 09:21:43;;;;;;;7.13;3.65;;;4.00;70.40;;;;;;5016079;28;20214;-63
2022/03/06 09:24:11;;;;;;;5.50;3.90;;;4.10;69.80;;;;;;5016454;28;20191;-63
2022/03/06 09:26:38;;;;;;;5.53;3.42;;;4.20;68.90;;;;;;5016788;28;20260;-62
2022/03/06 09:29:06;;;;;;;3.38;3.03;;;4.10;67.50;;;;;;5015708;28;20226;-63
2022/03/06 09:31:33;;;;;;;3.67;2.95;;;4.10;66.70;;;;;;5016155;28;20261;-61
2022/03/06 09:34:00;;;;;;;5.28;3.60;;;4.00;66.20;;;;;;5015845;28;20213;-61
2022/03/06 09:36:28;;;;;;;6.82;3.53;;;3.90;65.40;;;;;;5015762;28;20206;-62
2022/03/06 09:38:55;;;;;;;4.97;3.67;;;3.90;65.30;;;;;;5015921;28;20226;-61
2022/03/06 09:41:27;;;;;;;3.83;3.50;;;3.90;65.10;;;;;;5015542;28;20207;-63
2022/03/06 09:43:56;;;;;;;6.38;3.58;;;3.90;64.80;;;;;;5015783;28;20219;-62
2022/03/06 09:46:24;;;;;;;4.78;3.63;;;3.90;64.20;;;;;;5015636;28;20203;-61
2022/03/06 09:48:51;;;;;;;4.90;3.70;;;4.00;63.80;;;;;;5015791;28;20214;-62
2022/03/06 09:51:20;;;;;;;4.07;3.63;;;4.00;63.10;;;;;;5015478;28;20203;-61
2022/03/06 09:53:49;;;;;;;4.25;3.85;;;4.00;62.50;;;;;;5016489;28;20227;-61
2022/03/06 09:56:16;;;;;;;6.05;4.13;;;4.00;61.80;;;;;;5015478;28;20234;-61
2022/03/06 09:58:44;;;;;;;5.35;3.80;;;4.00;61.50;;;;;;5016480;28;20207;-61
2022/03/06 10:01:12;;;;;;;3.78;3.42;;;4.10;61.30;;;;;;5018137;28;20230;-63
2022/03/06 10:03:39;;;;;;;6.60;4.00;;;4.20;61.20;;;;;;5017078;28;20231;-63
2022/03/06 10:06:07;;;;;;;7.10;4.38;;;4.20;60.00;;;;;;5016370;28;20207;-62
2022/03/06 10:08:35;;;;;;;9.02;4.00;;;4.30;59.80;;;;;;5018986;28;20214;-62
2022/03/06 10:11:06;;;;;;;4.90;4.40;;;4.30;59.40;;;;;;5019699;28;20265;-63
2022/03/06 10:13:35;;;;;;;4.20;3.80;;;4.40;58.90;;;;;;5020436;28;20231;-62
2022/03/06 10:16:09;;;;;;;4.53;4.10;;;4.50;58.10;;;;;;5022194;28;20218;-62
2022/03/06 10:18:38;;;;;;;4.85;4.38;;;4.40;57.70;;;;;;5022185;28;20187;-62
2022/03/06 10:21:22;;;;;;;4.20;3.78;;;4.50;57.70;;;;;;5020526;28;20205;-62
2022/03/06 10:23:50;;;;;;;3.90;3.60;;;4.50;57.30;;;;;;5058605;22;20234;-62
2022/03/06 10:26:20;;;;;;;3.97;3.58;;;4.50;56.60;;;;;;5042452;28;20210;-63
2022/03/06 10:28:51;;;;;;;4.70;3.83;;;4.40;56.40;;;;;;5041281;28;20209;-62
2022/03/06 10:31:19;;;;;;;5.70;4.35;;;4.30;56.50;;;;;;5039808;28;20218;-62
2022/03/06 10:34:05;;;;;;;5.50;4.40;;;4.30;56.80;;;;;;5039588;28;20317;-62
2022/03/06 10:36:37;;;;;;;5.28;4.72;;;4.30;56.70;;;;;;5035804;28;20196;-62
2022/03/06 10:39:10;;;;;;;4.20;3.80;;;4.40;56.50;;;;;;5037279;28;20193;-61
2022/03/06 10:41:40;;;;;;;5.10;4.40;;;4.50;56.30;;;;;;5044112;28;20574;-63
2022/03/06 10:44:09;;;;;;;5.18;4.22;;;4.60;55.60;;;;;;5045160;28;20218;-62
2022/03/06 10:46:37;;;;;;;5.38;4.75;;;4.60;55.40;;;;;;5044295;28;20209;-62
2022/03/06 10:49:12;;;;;;;4.97;4.35;;;4.60;55.20;;;;;;5037366;28;20207;-61
2022/03/06 10:51:41;;;;;;;5.60;4.05;;;4.60;54.80;;;;;;5036032;28;20277;-63
2022/03/06 10:54:09;;;;;;;5.13;4.63;;;4.60;54.70;;;;;;5034831;28;20223;-62
2022/03/06 10:56:38;;;;;;;6.82;4.82;;;4.60;54.50;;;;;;5035465;28;20567;-62
2022/03/06 10:59:07;;;;;;;7.95;5.25;;;4.80;54.40;;;;;;5035056;28;20253;-62
2022/03/06 11:01:34;;;;;;;7.97;5.07;;;4.90;54.10;;;;;;5034763;28;20202;-61
2022/03/06 11:04:04;;;;;;;4.47;4.07;;;5.10;53.90;;;;;;5034902;28;20225;-62
2022/03/06 11:06:38;;;;;;;5.90;4.65;;;5.20;53.40;;;;;;5037603;28;20202;-62
2022/03/06 11:09:07;;;;;;;6.55;4.63;;;5.20;53.10;;;;;;5039764;28;20221;-61
2022/03/06 11:11:35;;;;;;;8.13;4.78;;;5.30;52.90;;;;;;5036313;28;20203;-62
2022/03/06 11:14:05;;;;;;;4.90;4.50;;;5.30;52.70;;;;;;5037528;28;20229;-61
2022/03/06 11:16:32;;;;;;;5.90;5.40;;;5.40;52.60;;;;;;5036990;28;20191;-63
2022/03/06 11:19:00;;;;;;;6.65;5.07;;;5.50;52.00;;;;;;5036499;28;20213;-63
2022/03/06 11:21:28;;;;;;;6.50;4.90;;;5.60;51.40;;;;;;5046940;28;20198;-62
2022/03/06 11:23:59;;;;;;;6.20;4.97;;;5.60;51.00;;;;;;5040724;28;20305;-62
2022/03/06 11:26:43;;;;;;;5.57;4.70;;;5.40;50.80;;;;;;5037495;28;20195;-62
2022/03/06 11:29:40;;;;;;;5.90;5.25;;;5.30;50.60;;;;;;5035145;28;20186;-62
2022/03/06 11:32:08;;;;;;;6.07;4.72;;;5.10;50.70;;;;;;5034573;28;20190;-62
2022/03/06 11:34:39;;;;;;;6.35;5.40;;;5.00;50.70;;;;;;5035356;28;20210;-61
2022/03/06 11:37:11;;;;;;;4.93;4.43;;;5.00;50.40;;;;;;5035482;28;20199;-61
2022/03/06 11:39:49;;;;;;;7.60;4.90;;;4.80;50.30;;;;;;5034576;28;20183;-62
2022/03/06 11:42:54;;;;;;;9.68;5.05;;;4.80;50.40;;;;;;5034344;28;20232;-62
2022/03/06 11:46:02;;;;;;;5.65;4.22;;;4.80;50.40;;;;;;5033736;28;20309;-62
2022/03/06 11:49:12;;;;;;;4.70;4.13;;;4.80;50.40;;;;;;5034476;28;20222;-60
2022/03/06 11:51:41;;;;;;;5.88;4.68;;;4.70;50.30;;;;;;5033995;28;20207;-62
2022/03/06 11:54:10;;;;;;;5.55;4.70;;;4.60;49.60;;;;;;5033484;28;20222;-61
2022/03/06 11:56:58;;;;;;;7.60;5.13;;;4.60;49.60;;;;;;5033864;28;20256;-62
2022/03/06 11:59:44;;;;;;;5.00;4.50;;;4.60;49.50;;;;;;5034070;28;20562;-62
2022/03/06 12:02:18;;;;;;;5.28;4.78;;;4.70;49.20;;;;;;5034086;28;20252;-61
2022/03/06 12:04:47;;;;;;;5.65;4.97;;;4.80;49.00;;;;;;5034548;28;20197;-62
2022/03/06 12:07:17;;;;;;;7.00;4.40;;;4.80;48.50;;;;;;5034211;28;20202;-61
2022/03/06 12:09:46;;;;;;;5.93;5.35;;;4.80;48.40;;;;;;5033650;28;20245;-61
2022/03/06 12:12:15;;;;;;;5.10;4.60;;;4.90;48.20;;;;;;5034021;28;20206;-61
2022/03/06 12:14:44;;;;;;;5.07;4.60;;;4.90;47.80;;;;;;5034390;28;20217;-62
2022/03/06 12:17:36;;;;;;;4.88;4.47;;;4.90;47.20;;;;;;5034357;28;20210;-60
2022/03/06 12:20:26;;;;;;;4.82;4.43;;;4.90;47.00;;;;;;5034871;28;20183;-63
2022/03/06 12:23:03;;;;;;;4.97;3.60;;;4.90;46.90;;;;;;5033698;28;20717;-62
2022/03/06 12:25:33;;;;;;;4.28;3.72;;;5.00;46.80;;;;;;5033873;28;20721;-62
2022/03/06 12:28:18;;;;;;;4.05;3.65;;;5.00;46.50;;;;;;5033355;28;20191;-61
2022/03/06 12:30:46;;;;;;;4.78;3.67;;;5.00;46.50;;;;;;5038228;28;20225;-62
2022/03/06 12:33:30;;;;;;;4.88;4.40;;;5.00;46.50;;;;;;5046850;28;20282;-62
2022/03/06 12:36:23;;;;;;;5.10;3.78;;;5.00;46.30;;;;;;5044004;28;20219;-62
2022/03/06 12:39:04;;;;;;;4.40;3.55;;;4.90;46.20;;;;;;5041392;28;20332;-62
2022/03/06 12:41:33;;;;;;;8.25;4.03;;;4.90;46.40;;;;;;5042481;28;20240;-61
2022/03/06 12:44:05;;;;;;;4.47;3.83;;;4.90;46.40;;;;;;5040884;28;20276;-62
2022/03/06 12:46:32;;;;;;;5.78;4.25;;;4.90;46.40;;;;;;5040306;28;20198;-61
2022/03/06 12:49:00;;;;;;;4.32;3.63;;;5.00;46.50;;;;;;5040843;28;20666;-62
2022/03/06 12:51:39;;;;;;;6.00;3.95;;;5.00;46.40;;;;;;5043835;28;20214;-63
2022/03/06 12:54:17;;;;;;;5.72;4.10;;;4.90;46.50;;;;;;5046771;28;20218;-61
2022/03/06 12:56:44;;;;;;;4.88;4.30;;;4.90;46.70;;;;;;5037234;28;20608;-61
2022/03/06 12:59:17;;;;;;;5.10;4.60;;;5.00;46.90;;;;;;5036508;28;20206;-62
2022/03/06 13:01:47;;;;;;;4.78;4.10;;;4.90;47.20;;;;;;5041658;28;20183;-61
2022/03/06 13:04:16;;;;;;;4.03;3.72;;;4.90;47.50;;;;;;5045644;28;20225;-61